createdAt,value
2022-08-09T00:00:06.451Z,986.98
2022-08-09T00:01:03.948Z,987.01
2022-08-09T00:02:04.002Z,986.92
2022-08-09T00:04:10.989Z,987.01
2022-08-09T00:04:25.220Z,986.98
2022-08-09T00:06:22.460Z,986.95
2022-08-09T00:06:22.801Z,987.01
2022-08-09T00:07:03.198Z,986.92
2022-08-09T00:08:03.175Z,986.98
2022-08-09T00:09:05.783Z,986.92
2022-08-09T00:10:04.092Z,987.18
2022-08-09T00:11:25.487Z,986.92
2022-08-09T00:12:05.245Z,986.90
2022-08-09T00:13:04.938Z,986.90
2022-08-09T00:14:03.840Z,986.95
2022-08-09T00:15:07.186Z,986.90
2022-08-09T00:16:04.634Z,987.01
2022-08-09T00:17:03.931Z,986.95
2022-08-09T00:18:12.255Z,987.04
2022-08-09T00:19:10.493Z,986.95
2022-08-09T00:20:04.635Z,986.95
2022-08-09T00:21:04.098Z,986.98
2022-08-09T00:22:04.616Z,987.04
2022-08-09T00:23:59.494Z,987.04
2022-08-09T00:24:03.438Z,987.10
2022-08-09T00:25:10.144Z,986.87
2022-08-09T00:26:05.624Z,986.93
2022-08-09T00:27:03.429Z,987.07
2022-08-09T00:28:04.829Z,986.99
2022-08-09T00:29:39.016Z,987.10
2022-08-09T00:30:26.761Z,987.10
2022-08-09T00:32:00.179Z,986.84
2022-08-09T00:32:03.895Z,986.99
2022-08-09T00:33:04.218Z,986.93
2022-08-09T00:34:03.525Z,986.99
2022-08-09T00:35:03.600Z,986.96
2022-08-09T00:36:03.444Z,987.10
2022-08-09T00:37:05.132Z,987.02
2022-08-09T00:38:04.873Z,986.90
2022-08-09T00:39:05.061Z,986.90
2022-08-09T00:40:17.512Z,986.93
2022-08-09T00:41:08.626Z,986.93
2022-08-09T00:44:24.756Z,987.11
2022-08-09T00:44:24.817Z,986.94
2022-08-09T00:44:26.535Z,986.91
2022-08-09T00:45:16.099Z,986.91
2022-08-09T00:46:03.267Z,986.91
2022-08-09T00:47:05.916Z,986.99
2022-08-09T00:48:03.780Z,986.79
2022-08-09T00:49:04.351Z,986.85
2022-08-09T00:50:03.759Z,986.88
2022-08-09T00:51:13.008Z,986.82
2022-08-09T00:52:16.083Z,986.82
2022-08-09T00:53:11.774Z,986.97
2022-08-09T00:54:03.897Z,986.97
2022-08-09T00:55:02.943Z,986.85
2022-08-09T00:56:09.919Z,986.85
2022-08-09T00:57:10.998Z,986.91
2022-08-09T00:58:06.214Z,986.74
2022-08-09T00:59:03.011Z,986.83
2022-08-09T01:00:20.858Z,986.88
2022-08-09T01:01:03.931Z,986.77
2022-08-09T01:02:03.620Z,986.74
2022-08-09T01:03:03.086Z,986.71
2022-08-09T01:04:04.979Z,986.94
2022-08-09T01:05:03.721Z,986.83
2022-08-09T01:06:18.603Z,986.86
2022-08-09T01:07:04.197Z,986.86
2022-08-09T01:08:03.330Z,986.83
2022-08-09T01:09:06.474Z,986.92
2022-08-09T01:10:03.244Z,986.75
2022-08-09T01:11:03.231Z,986.89
2022-08-09T01:12:03.347Z,986.80
2022-08-09T01:13:03.354Z,986.83
2022-08-09T01:14:04.205Z,986.63
2022-08-09T01:15:16.772Z,986.69
2022-08-09T01:16:05.160Z,986.75
2022-08-09T01:17:03.599Z,986.78
2022-08-09T01:18:03.836Z,986.75
2022-08-09T01:19:05.148Z,986.78
2022-08-09T01:20:03.902Z,986.75
2022-08-09T01:21:03.720Z,986.81
2022-08-09T01:22:04.133Z,986.75
2022-08-09T01:23:05.000Z,986.72
2022-08-09T01:24:05.543Z,986.81
2022-08-09T01:25:03.663Z,986.69
2022-08-09T01:26:03.686Z,986.75
2022-08-09T01:27:03.797Z,986.78
2022-08-09T01:28:05.144Z,986.72
2022-08-09T01:29:02.898Z,986.66
2022-08-09T01:30:04.336Z,986.66
2022-08-09T01:31:06.436Z,986.72
2022-08-09T01:32:33.936Z,986.61
2022-08-09T01:33:03.733Z,986.69
2022-08-09T01:34:03.672Z,986.72
2022-08-09T01:35:28.709Z,986.84
2022-08-09T01:36:04.192Z,986.67
2022-08-09T01:37:03.774Z,986.73
2022-08-09T01:38:14.883Z,986.78
2022-08-09T01:39:03.002Z,986.76
2022-08-09T01:40:03.243Z,986.64
2022-08-09T01:41:06.370Z,986.93
2022-08-09T01:42:11.469Z,986.93
2022-08-09T01:43:02.963Z,986.81
2022-08-09T01:44:02.981Z,986.81
2022-08-09T01:45:05.861Z,986.76
2022-08-09T01:46:03.000Z,986.82
2022-08-09T01:47:03.193Z,986.73
2022-08-09T01:48:06.541Z,986.90
2022-08-09T01:49:12.613Z,986.85
2022-08-09T01:50:07.848Z,986.79
2022-08-09T01:51:03.531Z,986.70
2022-08-09T01:52:07.889Z,986.79
2022-08-09T01:53:20.325Z,986.85
2022-08-09T01:54:04.465Z,986.79
2022-08-09T01:55:03.208Z,986.88
2022-08-09T01:56:04.719Z,986.76
2022-08-09T01:57:04.361Z,986.70
2022-08-09T01:58:04.853Z,986.93
2022-08-09T01:59:03.702Z,986.79
2022-08-09T02:00:34.416Z,986.82
2022-08-09T02:01:04.238Z,986.73
2022-08-09T02:02:04.804Z,986.88
2022-08-09T02:03:03.488Z,986.91
2022-08-09T02:04:03.559Z,986.88
2022-08-09T02:05:15.673Z,986.85
2022-08-09T02:06:07.177Z,986.88
2022-08-09T02:07:05.084Z,986.79
2022-08-09T02:08:59.619Z,986.94
2022-08-09T02:09:03.330Z,986.91
2022-08-09T02:10:04.593Z,986.80
2022-08-09T02:11:17.607Z,986.88
2022-08-09T02:12:06.780Z,987.00
2022-08-09T02:13:03.519Z,986.91
2022-08-09T02:14:07.954Z,986.91
2022-08-09T02:15:07.668Z,986.97
2022-08-09T02:16:03.587Z,987.03
2022-08-09T02:18:10.039Z,986.83
2022-08-09T02:19:05.973Z,986.91
2022-08-09T02:20:05.091Z,987.06
2022-08-09T02:21:03.783Z,986.91
2022-08-09T02:22:03.775Z,986.94
2022-08-09T02:23:03.800Z,987.03
2022-08-09T02:24:03.731Z,986.91
2022-08-09T02:25:06.945Z,986.89
2022-08-09T02:26:03.825Z,986.94
2022-08-09T02:27:05.841Z,987.03
2022-08-09T02:28:05.547Z,986.94
2022-08-09T02:29:04.138Z,987.12
2022-08-09T02:30:03.020Z,987.03
2022-08-09T02:31:06.229Z,986.92
2022-08-09T02:32:05.496Z,987.06
2022-08-09T02:33:02.900Z,986.94
2022-08-09T02:34:26.085Z,986.92
2022-08-09T02:35:18.727Z,986.95
2022-08-09T02:36:04.861Z,987.03
2022-08-09T02:37:04.035Z,986.92
2022-08-09T02:38:02.934Z,986.98
2022-08-09T02:39:04.028Z,987.03
2022-08-09T02:40:03.617Z,986.98
2022-08-09T02:41:03.137Z,986.95
2022-08-09T02:42:03.737Z,987.03
2022-08-09T02:43:06.095Z,987.01
2022-08-09T02:44:19.921Z,986.83
2022-08-09T02:45:02.933Z,987.01
2022-08-09T02:46:03.193Z,987.01
2022-08-09T02:47:04.629Z,986.95
2022-08-09T02:48:04.243Z,986.92
2022-08-09T02:49:04.234Z,986.81
2022-08-09T02:50:03.628Z,986.86
2022-08-09T02:51:03.373Z,986.89
2022-08-09T02:52:04.153Z,986.95
2022-08-09T02:53:04.020Z,986.98
2022-08-09T02:54:03.994Z,987.04
2022-08-09T02:55:20.463Z,986.89
2022-08-09T02:56:03.236Z,986.92
2022-08-09T02:57:23.947Z,986.98
2022-08-09T02:58:37.783Z,986.98
2022-08-09T02:59:04.511Z,986.98
2022-08-09T03:00:26.326Z,987.07
2022-08-09T03:01:07.696Z,986.92
2022-08-09T03:02:07.051Z,987.07
2022-08-09T03:03:03.481Z,987.01
2022-08-09T03:04:19.670Z,986.95
2022-08-09T03:05:06.026Z,986.90
2022-08-09T03:06:03.549Z,986.87
2022-08-09T03:07:14.618Z,986.90
2022-08-09T03:08:03.536Z,987.01
2022-08-09T03:09:03.800Z,986.98
2022-08-09T03:10:04.371Z,986.90
2022-08-09T03:11:03.840Z,986.99
2022-08-09T03:12:13.294Z,986.90
2022-08-09T03:13:09.859Z,986.81
2022-08-09T03:14:03.820Z,986.90
2022-08-09T03:15:06.096Z,986.90
2022-08-09T03:16:07.214Z,986.93
2022-08-09T03:17:06.026Z,986.81
2022-08-09T03:18:10.704Z,986.93
2022-08-09T03:19:06.139Z,986.87
2022-08-09T03:20:11.827Z,986.84
2022-08-09T03:21:03.352Z,986.82
2022-08-09T03:22:03.832Z,987.02
2022-08-09T03:23:24.789Z,986.96
2022-08-09T03:24:05.390Z,986.90
2022-08-09T03:25:27.064Z,986.82
2022-08-09T03:26:05.503Z,986.93
2022-08-09T03:27:07.610Z,986.96
2022-08-09T03:28:03.994Z,986.90
2022-08-09T03:29:13.606Z,986.93
2022-08-09T03:30:04.781Z,986.99
2022-08-09T03:31:21.164Z,986.82
2022-08-09T03:32:02.978Z,986.96
2022-08-09T03:33:18.984Z,986.93
2022-08-09T03:34:03.484Z,986.82
2022-08-09T03:35:24.186Z,986.91
2022-08-09T03:36:17.306Z,986.88
2022-08-09T03:38:00.355Z,987.11
2022-08-09T03:38:04.071Z,987.05
2022-08-09T03:39:03.809Z,987.02
2022-08-09T03:40:05.453Z,986.99
2022-08-09T03:41:04.656Z,986.91
2022-08-09T03:42:07.130Z,987.02
2022-08-09T03:43:03.852Z,987.05
2022-08-09T03:44:09.650Z,986.94
2022-08-09T03:45:09.056Z,986.91
2022-08-09T03:46:27.528Z,986.80
2022-08-09T03:47:05.284Z,987.02
2022-08-09T03:48:04.207Z,986.97
2022-08-09T03:49:07.651Z,986.88
2022-08-09T03:50:03.945Z,986.82
2022-08-09T03:51:03.942Z,987.00
2022-08-09T03:52:04.743Z,986.91
2022-08-09T03:53:05.767Z,987.03
2022-08-09T03:54:04.229Z,986.94
2022-08-09T03:55:09.729Z,987.08
2022-08-09T03:56:05.688Z,987.08
2022-08-09T03:57:18.872Z,987.03
2022-08-09T03:58:16.817Z,987.00
2022-08-09T03:59:07.545Z,986.94
2022-08-09T04:00:03.647Z,987.03
2022-08-09T04:01:05.347Z,986.97
2022-08-09T04:02:03.858Z,986.91
2022-08-09T04:03:07.073Z,987.06
2022-08-09T04:04:14.615Z,986.97
2022-08-09T04:05:18.216Z,986.91
2022-08-09T04:06:05.050Z,986.97
2022-08-09T04:07:03.532Z,986.97
2022-08-09T04:08:03.581Z,986.91
2022-08-09T04:09:42.328Z,987.03
2022-08-09T04:10:03.349Z,986.91
2022-08-09T04:11:06.395Z,987.03
2022-08-09T04:12:05.199Z,986.83
2022-08-09T04:13:04.840Z,986.97
2022-08-09T04:15:02.722Z,987.00
2022-08-09T04:15:17.408Z,987.03
2022-08-09T04:16:21.675Z,987.03
2022-08-09T04:17:03.682Z,987.06
2022-08-09T04:18:03.272Z,987.12
2022-08-09T04:19:15.766Z,987.12
2022-08-09T04:20:03.875Z,987.06
2022-08-09T04:21:04.348Z,987.00
2022-08-09T04:22:03.837Z,987.09
2022-08-09T04:23:16.969Z,987.14
2022-08-09T04:24:03.979Z,987.14
2022-08-09T04:25:04.272Z,987.20
2022-08-09T04:26:03.496Z,987.17
2022-08-09T04:27:03.370Z,987.09
2022-08-09T04:28:04.109Z,987.17
2022-08-09T04:29:14.797Z,987.29
2022-08-09T04:30:03.453Z,987.17
2022-08-09T04:31:09.621Z,987.11
2022-08-09T04:32:05.745Z,987.17
2022-08-09T04:33:03.734Z,987.26
2022-08-09T04:34:04.014Z,987.17
2022-08-09T04:35:04.078Z,987.20
2022-08-09T04:36:03.531Z,987.23
2022-08-09T04:37:03.487Z,987.17
2022-08-09T04:38:04.235Z,987.25
2022-08-09T04:39:04.120Z,987.25
2022-08-09T04:40:03.929Z,987.22
2022-08-09T04:41:03.924Z,987.21
2022-08-09T04:42:09.549Z,987.24
2022-08-09T04:43:04.080Z,987.18
2022-08-09T04:44:11.121Z,987.43
2022-08-09T04:45:03.492Z,987.23
2022-08-09T04:46:03.980Z,987.45
2022-08-09T04:47:06.383Z,987.28
2022-08-09T04:48:10.674Z,987.36
2022-08-09T04:49:05.677Z,987.39
2022-08-09T04:50:04.003Z,987.18
2022-08-09T04:51:04.062Z,987.43
2022-08-09T04:52:07.735Z,987.40
2022-08-09T04:53:04.237Z,987.40
2022-08-09T04:55:12.347Z,987.53
2022-08-09T04:56:03.672Z,987.50
2022-08-09T04:57:04.462Z,987.41
2022-08-09T04:58:10.196Z,987.44
2022-08-09T04:59:15.633Z,987.49
2022-08-09T05:00:05.495Z,987.54
2022-08-09T05:01:03.936Z,987.51
2022-08-09T05:02:03.681Z,987.56
2022-08-09T05:03:48.897Z,987.50
2022-08-09T05:04:03.435Z,987.50
2022-08-09T05:05:10.272Z,987.64
2022-08-09T05:06:07.734Z,987.43
2022-08-09T05:07:03.547Z,987.60
2022-08-09T05:08:03.482Z,987.72
2022-08-09T05:09:04.247Z,987.68
2022-08-09T05:10:03.795Z,987.77
2022-08-09T05:11:07.669Z,987.76
2022-08-09T05:12:09.163Z,987.82
2022-08-09T05:13:04.270Z,987.76
2022-08-09T05:14:06.915Z,987.87
2022-08-09T05:15:03.988Z,987.92
2022-08-09T05:16:03.839Z,987.94
2022-08-09T05:18:37.325Z,987.86
2022-08-09T05:18:50.576Z,987.96
2022-08-09T05:19:03.235Z,988.08
2022-08-09T05:20:03.155Z,988.13
2022-08-09T05:21:22.787Z,988.13
2022-08-09T05:22:03.497Z,988.15
2022-08-09T05:24:00.817Z,988.18
2022-08-09T05:24:05.206Z,988.09
2022-08-09T05:25:03.408Z,988.23
2022-08-09T05:26:03.724Z,988.26
2022-08-09T05:27:03.830Z,988.36
2022-08-09T05:28:03.879Z,988.33
2022-08-09T05:29:03.778Z,988.36
2022-08-09T05:30:03.049Z,988.44
2022-08-09T05:31:10.091Z,988.53
2022-08-09T05:32:06.161Z,988.55
2022-08-09T05:33:03.243Z,988.46
2022-08-09T05:34:03.299Z,988.66
2022-08-09T05:35:03.259Z,988.66
2022-08-09T05:36:03.702Z,988.69
2022-08-09T05:37:07.420Z,988.77
2022-08-09T05:38:03.574Z,988.74
2022-08-09T05:39:05.420Z,989.03
2022-08-09T05:40:04.714Z,988.94
2022-08-09T05:41:04.016Z,988.88
2022-08-09T05:42:06.040Z,989.00
2022-08-09T05:43:05.085Z,989.02
2022-08-09T05:44:05.719Z,989.23
2022-08-09T05:45:03.310Z,989.08
2022-08-09T05:46:03.519Z,989.19
2022-08-09T05:47:05.477Z,989.13
2022-08-09T05:48:03.630Z,989.25
2022-08-09T05:49:07.737Z,989.19
2022-08-09T05:50:39.832Z,989.27
2022-08-09T05:51:46.324Z,989.16
2022-08-09T05:52:03.347Z,989.33
2022-08-09T05:53:03.822Z,989.42
2022-08-09T05:54:05.464Z,989.36
2022-08-09T05:55:08.624Z,989.53
2022-08-09T05:56:03.937Z,989.59
2022-08-09T05:57:06.788Z,989.44
2022-08-09T05:58:04.364Z,989.38
2022-08-09T05:59:03.763Z,989.50
2022-08-09T06:00:07.981Z,989.72
2022-08-09T06:01:03.533Z,989.61
2022-08-09T06:02:03.799Z,989.78
2022-08-09T06:03:11.107Z,989.67
2022-08-09T06:04:06.351Z,989.77
2022-08-09T06:05:03.829Z,989.80
2022-08-09T06:06:06.545Z,989.77
2022-08-09T06:07:03.808Z,989.66
2022-08-09T06:08:10.966Z,989.95
2022-08-09T06:09:22.993Z,989.86
2022-08-09T06:10:03.721Z,989.91
2022-08-09T06:11:17.677Z,989.85
2022-08-09T06:12:03.527Z,989.91
2022-08-09T06:13:21.056Z,989.85
2022-08-09T06:14:08.857Z,989.82
2022-08-09T06:15:10.514Z,989.88
2022-08-09T06:16:05.556Z,989.99
2022-08-09T06:17:10.246Z,990.02
2022-08-09T06:18:04.549Z,989.96
2022-08-09T06:19:04.945Z,989.99
2022-08-09T06:20:04.810Z,990.02
2022-08-09T06:21:05.605Z,990.14
2022-08-09T06:22:03.751Z,990.05
2022-08-09T06:23:03.338Z,990.11
2022-08-09T06:24:03.304Z,990.10
2022-08-09T06:25:03.322Z,990.16
2022-08-09T06:26:04.045Z,990.10
2022-08-09T06:27:03.436Z,990.10
2022-08-09T06:28:05.234Z,990.16
2022-08-09T06:29:05.675Z,990.25
2022-08-09T06:30:10.109Z,990.30
2022-08-09T06:31:04.393Z,990.18
2022-08-09T06:32:53.669Z,990.24
2022-08-09T06:33:48.840Z,990.33
2022-08-09T06:34:03.823Z,990.18
2022-08-09T06:35:07.167Z,990.24
2022-08-09T06:36:07.743Z,990.24
2022-08-09T06:37:03.503Z,990.35
2022-08-09T06:38:06.843Z,990.29
2022-08-09T06:39:11.501Z,990.32
2022-08-09T06:40:24.064Z,990.38
2022-08-09T06:41:03.975Z,990.49
2022-08-09T06:42:11.694Z,990.32
2022-08-09T06:43:10.440Z,990.54
2022-08-09T06:44:03.820Z,990.44
2022-08-09T06:46:10.813Z,990.41
2022-08-09T06:46:11.189Z,990.51
2022-08-09T06:47:03.103Z,990.48
2022-08-09T06:48:03.856Z,990.37
2022-08-09T06:49:03.745Z,990.51
2022-08-09T06:50:18.926Z,990.51
2022-08-09T06:51:05.540Z,990.51
2022-08-09T06:52:03.514Z,990.37
2022-08-09T06:53:04.528Z,990.48
2022-08-09T06:54:06.172Z,990.51
2022-08-09T06:55:12.882Z,990.51
2022-08-09T06:56:03.585Z,990.51
2022-08-09T06:57:03.650Z,990.34
2022-08-09T06:58:05.016Z,990.51
2022-08-09T07:00:58.328Z,990.48
2022-08-09T07:00:58.341Z,990.57
2022-08-09T07:01:04.381Z,990.34
2022-08-09T07:02:05.425Z,990.54
2022-08-09T07:03:06.519Z,990.43
2022-08-09T07:04:04.463Z,990.43
2022-08-09T07:05:02.997Z,990.53
2022-08-09T07:06:05.707Z,990.43
2022-08-09T07:07:05.362Z,990.40
2022-08-09T07:08:03.992Z,990.50
2022-08-09T07:09:03.026Z,990.53
2022-08-09T07:10:29.862Z,990.37
2022-08-09T07:11:03.932Z,990.59
2022-08-09T07:12:04.865Z,990.36
2022-08-09T07:13:29.576Z,990.50
2022-08-09T07:14:06.287Z,990.59
2022-08-09T07:16:40.832Z,990.68
2022-08-09T07:16:53.571Z,990.50
2022-08-09T07:17:08.377Z,990.59
2022-08-09T07:18:03.640Z,990.65
2022-08-09T07:19:03.008Z,990.74
2022-08-09T07:20:03.001Z,990.62
2022-08-09T07:21:08.352Z,990.56
2022-08-09T07:22:03.413Z,990.62
2022-08-09T07:23:19.823Z,990.71
2022-08-09T07:24:05.309Z,990.68
2022-08-09T07:25:09.522Z,990.47
2022-08-09T07:26:03.842Z,990.62
2022-08-09T07:27:26.606Z,990.62
2022-08-09T07:28:04.711Z,990.65
2022-08-09T07:29:13.743Z,990.59
2022-08-09T07:30:05.728Z,990.59
2022-08-09T07:31:03.872Z,990.65
2022-08-09T07:32:03.622Z,990.59
2022-08-09T07:33:16.855Z,990.68
2022-08-09T07:34:04.211Z,990.56
2022-08-09T07:35:11.988Z,990.53
2022-08-09T07:36:03.001Z,990.59
2022-08-09T07:37:04.140Z,990.62
2022-08-09T07:38:03.356Z,990.68
2022-08-09T07:39:03.784Z,990.53
2022-08-09T07:40:05.461Z,990.53
2022-08-09T07:41:13.269Z,990.65
2022-08-09T07:42:05.322Z,990.50
2022-08-09T07:43:16.731Z,990.53
2022-08-09T07:44:03.963Z,990.62
2022-08-09T07:45:36.871Z,990.62
2022-08-09T07:46:03.590Z,990.59
2022-08-09T07:47:08.109Z,990.58
2022-08-09T07:48:05.307Z,990.58
2022-08-09T07:49:03.030Z,990.58
2022-08-09T07:50:09.255Z,990.50
2022-08-09T07:52:16.900Z,990.52
2022-08-09T07:52:17.916Z,990.39
2022-08-09T07:53:05.178Z,990.52
2022-08-09T07:54:08.766Z,990.52
2022-08-09T07:55:10.049Z,990.44
2022-08-09T07:56:06.986Z,990.44
2022-08-09T07:57:12.051Z,990.61
2022-08-09T07:58:03.466Z,990.49
2022-08-09T07:59:14.041Z,990.55
2022-08-09T08:00:04.443Z,990.49
2022-08-09T08:01:11.604Z,990.38
2022-08-09T08:02:05.447Z,990.52
2022-08-09T08:03:08.212Z,990.55
2022-08-09T08:04:03.091Z,990.49
2022-08-09T08:05:18.898Z,990.41
2022-08-09T08:06:02.998Z,990.57
2022-08-09T08:08:45.052Z,990.40
2022-08-09T08:09:05.215Z,990.43
2022-08-09T08:09:07.638Z,990.40
2022-08-09T08:10:11.280Z,990.54
2022-08-09T08:12:25.254Z,990.63
2022-08-09T08:12:29.320Z,990.40
2022-08-09T08:13:04.576Z,990.51
2022-08-09T08:14:06.765Z,990.63
2022-08-09T08:15:03.943Z,990.43
2022-08-09T08:16:03.909Z,990.69
2022-08-09T08:17:14.107Z,990.37
2022-08-09T08:18:04.030Z,990.43
2022-08-09T08:19:05.165Z,990.37
2022-08-09T08:20:13.701Z,990.54
2022-08-09T08:21:03.293Z,990.43
2022-08-09T08:22:03.292Z,990.51
2022-08-09T08:23:17.661Z,990.59
2022-08-09T08:24:16.682Z,990.51
2022-08-09T08:25:13.332Z,990.51
2022-08-09T08:26:11.483Z,990.56
2022-08-09T08:27:03.854Z,990.53
2022-08-09T08:28:08.165Z,990.50
2022-08-09T08:29:03.215Z,990.42
2022-08-09T08:30:04.814Z,990.42
2022-08-09T08:31:15.419Z,990.39
2022-08-09T08:32:06.474Z,990.39
2022-08-09T08:33:04.814Z,990.42
2022-08-09T08:34:03.894Z,990.50
2022-08-09T08:35:03.829Z,990.47
2022-08-09T08:36:04.271Z,990.47
2022-08-09T08:37:03.619Z,990.36
2022-08-09T08:38:12.140Z,990.47
2022-08-09T08:39:04.316Z,990.42
2022-08-09T08:40:04.146Z,990.47
2022-08-09T08:41:06.812Z,990.39
2022-08-09T08:42:04.078Z,990.42
2022-08-09T08:43:13.593Z,990.53
2022-08-09T08:44:03.949Z,990.50
2022-08-09T08:45:14.029Z,990.47
2022-08-09T08:46:35.400Z,990.40
2022-08-09T08:47:13.525Z,990.28
2022-08-09T08:48:05.598Z,990.33
2022-08-09T08:49:05.715Z,990.28
2022-08-09T08:50:03.730Z,990.27
2022-08-09T08:51:03.636Z,990.27
2022-08-09T08:52:11.134Z,990.30
2022-08-09T08:53:04.654Z,990.47
2022-08-09T08:54:05.293Z,990.39
2022-08-09T08:55:06.504Z,990.47
2022-08-09T08:56:03.157Z,990.33
2022-08-09T08:57:11.284Z,990.39
2022-08-09T08:58:08.605Z,990.53
2022-08-09T08:59:20.426Z,990.33
2022-08-09T09:00:13.207Z,990.56
2022-08-09T09:01:19.772Z,990.62
2022-08-09T09:02:06.031Z,990.47
2022-08-09T09:03:22.625Z,990.62
2022-08-09T09:04:03.528Z,990.53
2022-08-09T09:05:12.525Z,990.65
2022-08-09T09:06:05.891Z,990.56
2022-08-09T09:07:06.089Z,990.53
2022-08-09T09:08:04.021Z,990.59
2022-08-09T09:09:20.966Z,990.59
2022-08-09T09:10:08.950Z,990.65
2022-08-09T09:11:03.320Z,990.71
2022-08-09T09:12:12.232Z,990.62
2022-08-09T09:13:11.565Z,990.60
2022-08-09T09:14:03.525Z,990.77
2022-08-09T09:15:06.546Z,990.66
2022-08-09T09:16:03.839Z,990.54
2022-08-09T09:17:06.280Z,990.57
2022-08-09T09:18:03.815Z,990.57
2022-08-09T09:19:47.965Z,990.74
2022-08-09T09:20:03.476Z,990.63
2022-08-09T09:21:04.310Z,990.66
2022-08-09T09:22:07.335Z,990.65
2022-08-09T09:23:04.960Z,990.65
2022-08-09T09:24:10.476Z,990.59
2022-08-09T09:26:11.787Z,990.65
2022-08-09T09:26:12.931Z,990.65
2022-08-09T09:27:03.690Z,990.56
2022-08-09T09:28:10.839Z,990.53
2022-08-09T09:29:16.935Z,990.53
2022-08-09T09:30:26.083Z,990.56
2022-08-09T09:31:05.685Z,990.56
2022-08-09T09:32:16.000Z,990.47
2022-08-09T09:33:17.799Z,990.36
2022-08-09T09:34:04.969Z,990.42
2022-08-09T09:35:09.797Z,990.50
2022-08-09T09:36:20.107Z,990.53
2022-08-09T09:37:03.860Z,990.56
2022-08-09T09:38:04.595Z,990.71
2022-08-09T09:39:06.284Z,990.65
2022-08-09T09:40:04.167Z,990.74
2022-08-09T09:41:04.833Z,990.62
2022-08-09T09:42:10.895Z,990.56
2022-08-09T09:43:03.445Z,990.68
2022-08-09T09:44:15.562Z,990.71
2022-08-09T09:45:03.850Z,990.56
2022-08-09T09:46:46.277Z,990.50
2022-08-09T09:47:04.901Z,990.59
2022-08-09T09:48:03.405Z,990.47
2022-08-09T09:49:03.393Z,990.70
2022-08-09T09:50:17.717Z,990.56
2022-08-09T09:51:04.021Z,990.59
2022-08-09T09:52:03.890Z,990.56
2022-08-09T09:53:10.784Z,990.62
2022-08-09T09:54:18.113Z,990.59
2022-08-09T09:55:24.515Z,990.56
2022-08-09T09:56:05.814Z,990.62
2022-08-09T09:58:16.004Z,990.70
2022-08-09T09:58:20.032Z,990.67
2022-08-09T09:59:08.783Z,990.64
2022-08-09T10:00:03.971Z,990.53
2022-08-09T10:01:04.879Z,990.53
2022-08-09T10:02:03.743Z,990.70
2022-08-09T10:03:14.265Z,990.70
2022-08-09T10:04:10.212Z,990.85
2022-08-09T10:05:06.961Z,990.73
2022-08-09T10:06:05.596Z,990.85
2022-08-09T10:07:10.256Z,990.73
2022-08-09T10:08:28.882Z,990.73
2022-08-09T10:09:23.513Z,990.79
2022-08-09T10:10:04.053Z,990.68
2022-08-09T10:12:12.623Z,990.88
2022-08-09T10:12:27.920Z,990.77
2022-08-09T10:13:10.093Z,990.79
2022-08-09T10:14:03.136Z,990.76
2022-08-09T10:15:04.018Z,990.76
2022-08-09T10:17:01.243Z,990.76
2022-08-09T10:17:40.843Z,990.70
2022-08-09T10:18:04.404Z,990.73
2022-08-09T10:19:04.529Z,990.79
2022-08-09T10:20:03.586Z,990.70
2022-08-09T10:21:03.553Z,990.73
2022-08-09T10:22:03.014Z,990.73
2022-08-09T10:23:03.260Z,990.82
2022-08-09T10:24:04.435Z,990.70
2022-08-09T10:25:11.558Z,990.64
2022-08-09T10:26:10.916Z,990.82
2022-08-09T10:27:17.042Z,990.82
2022-08-09T10:28:03.309Z,990.94
2022-08-09T10:30:02.791Z,990.85
2022-08-09T10:32:28.568Z,990.91
2022-08-09T10:32:40.530Z,990.91
2022-08-09T10:33:04.310Z,991.00
2022-08-09T10:34:33.294Z,990.94
2022-08-09T10:35:03.808Z,990.85
2022-08-09T10:36:04.694Z,990.79
2022-08-09T10:37:03.561Z,990.73
2022-08-09T10:38:03.359Z,990.91
2022-08-09T10:39:14.120Z,990.85
2022-08-09T10:40:03.965Z,990.76
2022-08-09T10:41:04.429Z,990.88
2022-08-09T10:42:04.043Z,991.00
2022-08-09T10:43:03.741Z,990.97
2022-08-09T10:44:03.753Z,990.85
2022-08-09T10:45:04.651Z,990.97
2022-08-09T10:46:04.718Z,990.88
2022-08-09T10:48:13.063Z,990.97
2022-08-09T10:48:31.069Z,991.12
2022-08-09T10:49:05.404Z,990.85
2022-08-09T10:50:03.532Z,990.94
2022-08-09T10:51:03.367Z,990.91
2022-08-09T10:52:04.521Z,990.82
2022-08-09T10:53:03.997Z,990.94
2022-08-09T10:54:12.394Z,990.91
2022-08-09T10:55:03.437Z,990.82
2022-08-09T10:56:03.890Z,990.88
2022-08-09T10:57:04.717Z,990.85
2022-08-09T10:58:04.403Z,990.91
2022-08-09T10:59:05.037Z,990.79
2022-08-09T11:00:05.243Z,990.76
2022-08-09T11:03:19.256Z,990.82
2022-08-09T11:03:19.665Z,990.70
2022-08-09T11:03:51.168Z,990.61
2022-08-09T11:04:06.704Z,990.55
2022-08-09T11:05:04.841Z,990.55
2022-08-09T11:06:03.922Z,990.70
2022-08-09T11:07:03.299Z,990.64
2022-08-09T11:08:04.298Z,990.58
2022-08-09T11:09:16.602Z,990.64
2022-08-09T11:10:03.251Z,990.64
2022-08-09T11:11:09.401Z,990.70
2022-08-09T11:12:05.551Z,990.64
2022-08-09T11:13:03.697Z,990.64
2022-08-09T11:14:03.847Z,990.79
2022-08-09T11:15:05.572Z,990.70
2022-08-09T11:16:06.543Z,990.55
2022-08-09T11:17:03.842Z,990.82
2022-08-09T11:18:04.443Z,990.70
2022-08-09T11:19:10.806Z,990.67
2022-08-09T11:20:20.570Z,990.61
2022-08-09T11:21:02.957Z,990.61
2022-08-09T11:22:18.978Z,990.49
2022-08-09T11:23:07.072Z,990.58
2022-08-09T11:24:04.511Z,990.58
2022-08-09T11:25:03.468Z,990.52
2022-08-09T11:26:04.468Z,990.52
2022-08-09T11:27:07.077Z,990.55
2022-08-09T11:28:34.221Z,990.61
2022-08-09T11:29:03.142Z,990.55
2022-08-09T11:30:33.163Z,990.58
2022-08-09T11:31:03.745Z,990.58
2022-08-09T11:32:03.666Z,990.69
2022-08-09T11:33:03.170Z,990.58
2022-08-09T11:34:03.098Z,990.55
2022-08-09T11:35:03.183Z,990.55
2022-08-09T11:36:03.407Z,990.41
2022-08-09T11:37:08.118Z,990.52
2022-08-09T11:38:04.855Z,990.58
2022-08-09T11:39:04.282Z,990.58
2022-08-09T11:40:04.403Z,990.52
2022-08-09T11:41:05.426Z,990.52
2022-08-09T11:42:03.758Z,990.52
2022-08-09T11:43:03.027Z,990.58
2022-08-09T11:44:03.112Z,990.64
2022-08-09T11:45:03.128Z,990.55
2022-08-09T11:46:03.012Z,990.64
2022-08-09T11:47:02.990Z,990.73
2022-08-09T11:48:19.629Z,990.70
2022-08-09T11:49:05.807Z,990.65
2022-08-09T11:52:06.834Z,990.53
2022-08-09T11:53:04.558Z,990.53
2022-08-09T11:54:00.096Z,990.71
2022-08-09T11:54:03.495Z,990.77
2022-08-09T11:54:09.480Z,990.56
2022-08-09T11:55:05.147Z,990.62
2022-08-09T11:56:03.836Z,990.53
2022-08-09T11:57:07.963Z,990.53
2022-08-09T11:58:06.507Z,990.39
2022-08-09T11:59:03.939Z,990.62
2022-08-09T12:00:03.930Z,990.47
2022-08-09T12:01:02.978Z,990.47
2022-08-09T12:02:37.499Z,990.39
2022-08-09T12:03:56.371Z,990.42
2022-08-09T12:04:05.030Z,990.42
2022-08-09T12:05:06.328Z,990.47
2022-08-09T12:06:03.553Z,990.39
2022-08-09T12:07:08.150Z,990.36
2022-08-09T12:08:04.465Z,990.41
2022-08-09T12:09:15.370Z,990.32
2022-08-09T12:10:04.102Z,990.35
2022-08-09T12:11:03.277Z,990.41
2022-08-09T12:12:04.716Z,990.33
2022-08-09T12:14:12.249Z,990.27
2022-08-09T12:14:12.389Z,990.36
2022-08-09T12:15:09.374Z,990.47
2022-08-09T12:16:03.663Z,990.47
2022-08-09T12:17:34.933Z,990.53
2022-08-09T12:18:03.887Z,990.42
2022-08-09T12:19:04.261Z,990.36
2022-08-09T12:20:04.489Z,990.50
2022-08-09T12:21:03.387Z,990.33
2022-08-09T12:22:03.549Z,990.27
2022-08-09T12:23:05.079Z,990.42
2022-08-09T12:24:10.362Z,990.47
2022-08-09T12:25:03.293Z,990.27
2022-08-09T12:26:03.362Z,990.30
2022-08-09T12:29:15.830Z,990.33
2022-08-09T12:29:33.822Z,990.41
2022-08-09T12:29:44.830Z,990.35
2022-08-09T12:30:38.885Z,990.24
2022-08-09T12:31:31.426Z,990.35